createdAt,value
2022-12-19T00:01:05.911Z,55.33
2022-12-19T00:02:08.023Z,50.42
2022-12-19T00:03:11.634Z,58.85
2022-12-19T00:04:15.647Z,60.35
2022-12-19T00:05:19.171Z,47.25
2022-12-19T00:06:21.877Z,51.00
2022-12-19T00:07:25.477Z,52.63
2022-12-19T00:08:27.983Z,49.30
2022-12-19T00:09:31.289Z,53.15
2022-12-19T00:10:35.375Z,56.42
2022-12-19T00:11:39.023Z,46.42
2022-12-19T00:12:41.366Z,48.67
2022-12-19T00:13:44.942Z,52.90
2022-12-19T00:14:47.750Z,52.28
2022-12-19T00:15:52.659Z,52.28
2022-12-19T00:16:54.906Z,47.92
2022-12-19T00:17:58.393Z,49.83
2022-12-19T00:19:01.726Z,49.25
2022-12-19T00:20:05.413Z,51.85
2022-12-19T00:21:08.585Z,46.28
2022-12-19T00:22:12.000Z,47.15
2022-12-19T00:23:14.521Z,50.08
2022-12-19T00:24:21.390Z,50.13
2022-12-19T00:25:23.973Z,48.22
2022-12-19T00:26:29.946Z,47.22
2022-12-19T00:27:35.646Z,46.80
2022-12-19T00:28:39.325Z,47.95
2022-12-19T00:29:41.435Z,47.67
2022-12-19T00:30:44.462Z,50.08
2022-12-19T00:31:48.199Z,49.78
2022-12-19T00:32:51.624Z,48.72
2022-12-19T00:33:57.233Z,47.88
2022-12-19T00:35:01.176Z,51.42
2022-12-19T00:36:06.131Z,55.70
2022-12-19T00:37:09.736Z,49.97
2022-12-19T00:38:11.848Z,50.28
2022-12-19T00:39:15.008Z,48.08
2022-12-19T00:40:17.990Z,50.83
2022-12-19T00:41:23.194Z,44.50
2022-12-19T00:42:25.392Z,52.33
2022-12-19T00:43:28.494Z,48.05
2022-12-19T00:44:30.553Z,50.30
2022-12-19T00:45:38.779Z,49.13
2022-12-19T00:46:40.921Z,46.83
2022-12-19T00:47:45.633Z,54.88
2022-12-19T00:48:47.751Z,49.05
2022-12-19T00:49:54.265Z,53.42
2022-12-19T00:50:59.790Z,46.90
2022-12-19T00:52:03.527Z,43.28
2022-12-19T00:53:05.640Z,48.70
2022-12-19T00:54:11.583Z,50.42
2022-12-19T00:55:18.527Z,45.28
2022-12-19T00:56:24.744Z,49.88
2022-12-19T00:57:26.767Z,46.03
2022-12-19T00:58:33.222Z,45.97
2022-12-19T00:59:37.430Z,48.50
2022-12-19T01:00:41.046Z,49.42
2022-12-19T01:01:46.443Z,53.33
2022-12-19T01:02:56.061Z,44.92
2022-12-19T01:05:23.575Z,47.47
2022-12-19T01:06:25.746Z,42.80
2022-12-19T01:07:29.659Z,55.47
2022-12-19T01:08:32.578Z,45.10
2022-12-19T01:09:37.651Z,38.88
2022-12-19T01:10:46.191Z,51.65
2022-12-19T01:12:07.847Z,50.33
2022-12-19T01:13:11.188Z,44.03
2022-12-19T01:14:20.771Z,44.95
2022-12-19T01:15:26.124Z,44.03
2022-12-19T01:16:28.246Z,49.25
2022-12-19T01:17:31.526Z,43.15
2022-12-19T01:18:37.057Z,44.33
2022-12-19T01:19:44.069Z,47.00
2022-12-19T01:20:48.395Z,41.60
2022-12-19T01:21:50.651Z,42.95
2022-12-19T01:22:55.344Z,53.13
2022-12-19T01:23:57.731Z,52.58
2022-12-19T01:25:00.948Z,44.40
2022-12-19T01:26:03.589Z,42.30
2022-12-19T01:27:06.890Z,43.90
2022-12-19T01:28:15.168Z,40.72
2022-12-19T01:29:17.715Z,45.22
2022-12-19T01:30:20.944Z,46.17
2022-12-19T01:31:23.573Z,48.13
2022-12-19T01:32:26.873Z,44.03
2022-12-19T01:33:28.944Z,39.50
2022-12-19T01:34:33.945Z,45.35
2022-12-19T01:35:36.648Z,38.10
2022-12-19T01:36:40.417Z,43.70
2022-12-19T01:37:42.672Z,42.17
2022-12-19T01:38:45.801Z,40.35
2022-12-19T01:39:47.809Z,39.63
2022-12-19T01:40:52.790Z,40.92
2022-12-19T01:41:55.237Z,42.78
2022-12-19T01:42:58.484Z,44.22
2022-12-19T01:44:02.585Z,49.42
2022-12-19T01:45:21.768Z,42.33
2022-12-19T01:46:27.775Z,44.55
2022-12-19T01:47:34.131Z,41.20
2022-12-19T01:48:39.723Z,47.25
2022-12-19T01:49:45.300Z,41.92
2022-12-19T01:51:01.371Z,42.67
2022-12-19T01:52:07.948Z,37.25
2022-12-19T01:53:13.737Z,41.75
2022-12-19T01:54:21.343Z,41.30
2022-12-19T01:55:23.608Z,37.38
2022-12-19T01:56:31.504Z,38.58
2022-12-19T01:57:34.911Z,38.92
2022-12-19T01:58:43.714Z,35.97
2022-12-19T01:59:50.447Z,44.28
2022-12-19T02:00:53.751Z,40.22
2022-12-19T02:02:02.128Z,40.75
2022-12-19T02:03:12.406Z,44.70
2022-12-19T02:04:20.439Z,44.38
2022-12-19T02:05:25.329Z,42.03
2022-12-19T02:06:30.650Z,39.78
2022-12-19T02:07:34.869Z,40.63
2022-12-19T02:08:37.425Z,38.97
2022-12-19T02:09:41.324Z,43.00
2022-12-19T02:10:43.491Z,38.30
2022-12-19T02:11:54.491Z,38.00
2022-12-19T02:12:56.773Z,36.47
2022-12-19T02:14:00.139Z,41.20
2022-12-19T02:15:04.574Z,39.25
2022-12-19T02:16:21.104Z,42.00
2022-12-19T02:17:38.321Z,39.85
2022-12-19T02:18:49.378Z,40.65
2022-12-19T02:20:21.248Z,42.97
2022-12-19T02:21:38.834Z,40.67
2022-12-19T02:22:54.021Z,42.08
2022-12-19T02:24:33.572Z,40.88
2022-12-19T02:25:51.896Z,46.53
2022-12-19T02:27:05.545Z,47.65
2022-12-19T02:28:35.669Z,42.13
2022-12-19T02:30:05.241Z,40.53
2022-12-19T02:31:23.989Z,41.70
2022-12-19T02:32:33.347Z,45.75
2022-12-19T02:33:44.755Z,44.53
2022-12-19T02:34:56.760Z,47.17
2022-12-19T02:36:08.545Z,43.15
2022-12-19T02:37:17.842Z,49.08
2022-12-19T02:38:29.521Z,41.42
2022-12-19T02:39:37.222Z,44.88
2022-12-19T02:40:44.249Z,47.70
2022-12-19T02:41:53.776Z,43.25
2022-12-19T02:43:01.235Z,42.58
2022-12-19T02:44:04.644Z,45.20
2022-12-19T02:45:11.044Z,44.58
2022-12-19T02:46:13.904Z,49.95
2022-12-19T02:47:20.352Z,47.28
2022-12-19T02:48:23.387Z,46.92
2022-12-19T02:49:30.619Z,43.65
2022-12-19T02:50:39.837Z,44.80
2022-12-19T02:51:43.243Z,47.63
2022-12-19T02:52:47.376Z,47.00
2022-12-19T02:53:52.135Z,48.28
2022-12-19T02:54:59.002Z,48.40
2022-12-19T02:56:23.316Z,51.30
2022-12-19T02:57:30.825Z,49.03
2022-12-19T02:58:51.324Z,45.15
2022-12-19T03:00:03.172Z,48.03
2022-12-19T03:01:19.202Z,50.70
2022-12-19T03:02:32.986Z,45.60
2022-12-19T03:03:46.660Z,59.78
2022-12-19T03:04:56.420Z,45.88
2022-12-19T03:06:08.967Z,52.97
2022-12-19T03:07:19.761Z,45.00
2022-12-19T03:08:26.467Z,54.70
2022-12-19T03:09:38.599Z,49.63
2022-12-19T03:10:44.443Z,47.05
2022-12-19T03:11:51.076Z,50.80
2022-12-19T03:12:57.848Z,67.80
2022-12-19T03:14:04.847Z,55.30
2022-12-19T03:15:10.758Z,53.63
2022-12-19T03:16:14.828Z,51.00
2022-12-19T03:17:19.922Z,48.78
2022-12-19T03:18:26.036Z,51.53
2022-12-19T03:19:28.165Z,55.33
2022-12-19T03:20:46.967Z,54.30
2022-12-19T03:21:50.438Z,46.92
2022-12-19T03:22:54.147Z,49.28
2022-12-19T03:23:59.275Z,52.35
2022-12-19T03:25:01.939Z,48.00
2022-12-19T03:26:08.698Z,49.53
2022-12-19T03:27:14.570Z,46.47
2022-12-19T03:28:23.054Z,51.90
2022-12-19T03:29:30.664Z,48.72
2022-12-19T03:30:36.276Z,55.70
2022-12-19T03:31:40.601Z,43.20
2022-12-19T03:32:46.631Z,51.85
2022-12-19T03:33:55.754Z,48.67
2022-12-19T03:35:02.985Z,51.90
2022-12-19T03:36:09.534Z,46.63
2022-12-19T03:37:18.029Z,45.78
2022-12-19T03:38:22.011Z,42.97
2022-12-19T03:39:27.845Z,44.42
2022-12-19T03:40:32.060Z,45.70
2022-12-19T03:41:54.492Z,47.80
2022-12-19T03:43:12.257Z,45.72
2022-12-19T03:44:16.687Z,45.63
2022-12-19T03:45:30.608Z,48.30
2022-12-19T03:46:35.763Z,52.83
2022-12-19T03:47:43.107Z,48.70
2022-12-19T03:48:47.576Z,48.70
2022-12-19T03:49:52.609Z,54.03
2022-12-19T03:51:02.477Z,46.33
2022-12-19T03:52:14.182Z,47.97
2022-12-19T03:53:27.675Z,53.42
2022-12-19T03:54:34.892Z,49.47
2022-12-19T03:55:42.292Z,52.97
2022-12-19T03:56:51.648Z,52.00
2022-12-19T03:57:58.989Z,48.85
2022-12-19T03:59:07.292Z,47.20
2022-12-19T04:00:14.695Z,48.22
2022-12-19T04:01:17.036Z,49.20
2022-12-19T04:02:27.704Z,54.00
2022-12-19T04:03:32.098Z,50.65
2022-12-19T04:04:38.199Z,49.75
2022-12-19T04:05:43.845Z,51.05
2022-12-19T04:06:48.011Z,50.17
2022-12-19T04:07:52.487Z,49.80
2022-12-19T04:08:56.920Z,55.70
2022-12-19T04:10:01.774Z,53.97
2022-12-19T04:11:10.020Z,43.83
2022-12-19T04:12:18.435Z,49.38
2022-12-19T04:13:27.056Z,52.00
2022-12-19T04:14:31.282Z,50.40
2022-12-19T04:15:42.491Z,47.22
2022-12-19T04:16:50.800Z,44.75
2022-12-19T04:17:58.820Z,48.00
2022-12-19T04:19:06.614Z,49.80
2022-12-19T04:20:14.666Z,42.45
2022-12-19T04:21:23.006Z,55.25
2022-12-19T04:22:31.460Z,50.40
2022-12-19T04:23:38.446Z,48.22
2022-12-19T04:24:44.166Z,48.67
2022-12-19T04:25:50.745Z,50.08
2022-12-19T04:26:57.279Z,49.40
2022-12-19T04:28:05.255Z,58.10
2022-12-19T04:29:10.127Z,46.97
2022-12-19T04:30:15.220Z,47.25
2022-12-19T04:31:20.153Z,47.65
2022-12-19T04:32:24.841Z,48.38
2022-12-19T04:33:28.195Z,52.55
2022-12-19T04:34:30.387Z,50.10
2022-12-19T04:35:34.186Z,51.92
2022-12-19T04:36:39.133Z,48.53
2022-12-19T04:37:41.376Z,49.67
2022-12-19T04:38:44.866Z,49.10
2022-12-19T04:39:47.219Z,50.28
2022-12-19T04:40:50.391Z,52.10
2022-12-19T04:41:52.621Z,54.45
2022-12-19T04:42:55.750Z,54.13
2022-12-19T04:43:57.953Z,51.55
2022-12-19T04:45:01.236Z,54.45
2022-12-19T04:46:03.644Z,52.40
2022-12-19T04:47:06.926Z,56.00
2022-12-19T04:48:09.110Z,47.22
2022-12-19T04:49:12.375Z,55.53
2022-12-19T04:50:14.839Z,51.67
2022-12-19T04:51:18.328Z,57.30
2022-12-19T04:52:22.272Z,56.65
2022-12-19T04:53:25.360Z,51.85
2022-12-19T04:54:27.566Z,47.58
2022-12-19T04:55:31.229Z,47.90
2022-12-19T04:56:33.335Z,52.70
2022-12-19T04:57:36.781Z,48.85
2022-12-19T04:58:38.877Z,54.33
2022-12-19T04:59:42.288Z,53.90
2022-12-19T05:00:44.506Z,52.55
2022-12-19T05:01:47.817Z,54.30
2022-12-19T05:02:50.323Z,56.17
2022-12-19T05:03:55.832Z,49.45
2022-12-19T05:05:00.913Z,52.17
2022-12-19T05:06:10.093Z,56.00
2022-12-19T05:07:13.956Z,55.17
2022-12-19T05:08:18.630Z,52.60
2022-12-19T05:09:20.910Z,51.03
2022-12-19T05:10:24.290Z,47.97
2022-12-19T05:11:26.564Z,53.63
2022-12-19T05:12:29.953Z,57.47
2022-12-19T05:13:32.187Z,54.95
2022-12-19T05:14:35.363Z,54.92
2022-12-19T05:15:37.558Z,54.78
2022-12-19T05:16:40.707Z,54.70
2022-12-19T05:17:42.970Z,53.17
2022-12-19T05:18:48.076Z,57.67
2022-12-19T05:19:51.447Z,52.88
2022-12-19T05:20:57.274Z,52.67
2022-12-19T05:22:00.533Z,52.03
2022-12-19T05:23:05.806Z,53.80
2022-12-19T05:24:12.995Z,52.05
2022-12-19T05:25:15.823Z,54.58
2022-12-19T05:26:19.647Z,50.35
2022-12-19T05:27:22.245Z,54.83
2022-12-19T05:28:26.306Z,57.00
2022-12-19T05:29:29.798Z,55.70
2022-12-19T05:30:32.639Z,54.28
2022-12-19T05:31:36.431Z,59.67
2022-12-19T05:32:38.654Z,49.47
2022-12-19T05:33:43.302Z,55.03
2022-12-19T05:34:45.398Z,50.65
2022-12-19T05:35:49.728Z,54.88
2022-12-19T05:36:52.841Z,54.83
2022-12-19T05:37:54.831Z,52.60
2022-12-19T05:38:58.159Z,56.78
2022-12-19T05:40:02.218Z,56.65
2022-12-19T05:41:08.637Z,51.58
2022-12-19T05:42:12.559Z,44.42
2022-12-19T05:43:16.500Z,54.70
2022-12-19T05:44:19.616Z,54.90
2022-12-19T05:45:22.630Z,59.33
2022-12-19T05:46:27.471Z,54.28
2022-12-19T05:47:29.613Z,56.88
2022-12-19T05:48:33.257Z,56.65
2022-12-19T05:49:35.555Z,55.33
2022-12-19T05:50:38.663Z,51.70
2022-12-19T05:51:46.842Z,50.20
2022-12-19T05:52:50.011Z,56.55
2022-12-19T05:53:52.401Z,52.45
2022-12-19T05:54:56.123Z,53.17
2022-12-19T05:56:08.511Z,53.10
2022-12-19T05:57:12.379Z,58.42
2022-12-19T05:58:14.714Z,58.33
2022-12-19T05:59:18.401Z,51.25
2022-12-19T06:00:21.800Z,54.70
2022-12-19T06:01:26.658Z,54.53
2022-12-19T06:02:32.750Z,50.53
2022-12-19T06:03:36.281Z,50.67
2022-12-19T06:04:38.370Z,47.80
2022-12-19T06:05:41.960Z,49.30
2022-12-19T06:06:45.393Z,52.03
2022-12-19T06:07:48.819Z,49.38
2022-12-19T06:08:54.047Z,50.15
2022-12-19T06:09:57.400Z,56.08
2022-12-19T06:11:00.256Z,44.83
2022-12-19T06:12:05.568Z,50.42
2022-12-19T06:13:09.145Z,47.72
2022-12-19T06:14:12.552Z,53.47
2022-12-19T06:15:14.811Z,83.65
2022-12-19T06:16:21.350Z,71.82
2022-12-19T06:17:23.826Z,71.28
2022-12-19T06:18:27.102Z,60.40
2022-12-19T06:19:30.767Z,60.63
2022-12-19T06:20:34.097Z,55.83
2022-12-19T06:21:39.774Z,60.67
2022-12-19T06:22:48.950Z,51.10
2022-12-19T06:23:51.254Z,60.75
2022-12-19T06:24:54.400Z,46.40
2022-12-19T06:25:57.542Z,47.42
2022-12-19T06:27:01.171Z,50.63
2022-12-19T06:28:04.857Z,54.65
2022-12-19T06:29:09.358Z,52.35
2022-12-19T06:30:12.587Z,52.08
2022-12-19T06:31:16.879Z,49.97
2022-12-19T06:32:19.526Z,49.08
2022-12-19T06:33:24.200Z,46.35
2022-12-19T06:34:55.133Z,47.03
2022-12-19T06:35:50.224Z,44.33
2022-12-19T06:36:52.993Z,45.00
2022-12-19T06:38:00.882Z,46.35
2022-12-19T06:39:04.733Z,47.20
2022-12-19T06:40:30.022Z,45.30
2022-12-19T06:41:51.212Z,46.70
2022-12-19T06:42:53.495Z,47.03
2022-12-19T06:44:00.884Z,43.33
2022-12-19T06:45:04.325Z,44.80
2022-12-19T06:46:06.930Z,47.33
2022-12-19T06:47:10.157Z,49.35
2022-12-19T06:48:12.608Z,48.00
2022-12-19T06:49:16.179Z,51.58
2022-12-19T06:50:18.928Z,52.05
2022-12-19T06:51:22.601Z,58.65
2022-12-19T06:52:25.875Z,51.30
2022-12-19T06:53:29.201Z,51.10
2022-12-19T06:54:31.974Z,49.95
2022-12-19T06:55:37.913Z,53.42
2022-12-19T06:56:43.236Z,52.00
2022-12-19T06:57:47.155Z,44.55
2022-12-19T06:58:49.669Z,48.22
2022-12-19T06:59:55.338Z,49.67
2022-12-19T07:00:57.636Z,45.47
2022-12-19T07:02:05.947Z,47.40
2022-12-19T07:03:13.521Z,42.88
2022-12-19T07:04:22.559Z,50.13
2022-12-19T07:05:26.480Z,44.40
2022-12-19T07:06:29.158Z,50.10
2022-12-19T07:07:32.505Z,50.58
2022-12-19T07:08:35.787Z,51.58
2022-12-19T07:09:39.343Z,52.72
2022-12-19T07:10:42.607Z,49.72
2022-12-19T07:11:44.859Z,52.95
2022-12-19T07:12:48.295Z,50.72
2022-12-19T07:13:51.129Z,51.95
2022-12-19T07:14:55.768Z,46.25
2022-12-19T07:16:03.369Z,49.53
2022-12-19T07:17:07.770Z,48.10
2022-12-19T07:18:10.282Z,44.67
2022-12-19T07:19:14.333Z,45.90
2022-12-19T07:20:19.027Z,51.88
2022-12-19T07:21:22.395Z,49.22
2022-12-19T07:22:30.639Z,47.10
2022-12-19T07:23:34.289Z,49.53
2022-12-19T07:24:38.418Z,41.42
2022-12-19T07:25:41.863Z,44.47
2022-12-19T07:26:46.524Z,50.28
2022-12-19T07:27:49.976Z,46.80
2022-12-19T07:28:53.488Z,48.92
2022-12-19T07:29:57.371Z,44.67
2022-12-19T07:31:00.861Z,39.78
2022-12-19T07:32:05.074Z,49.03
2022-12-19T07:33:11.153Z,43.75
2022-12-19T07:34:14.315Z,40.83
2022-12-19T07:35:18.026Z,40.78
2022-12-19T07:36:21.727Z,43.85
2022-12-19T07:37:23.899Z,40.38
2022-12-19T07:38:28.727Z,37.70
2022-12-19T07:39:32.228Z,42.47
2022-12-19T07:40:35.896Z,44.10
2022-12-19T07:41:39.762Z,46.97
2022-12-19T07:42:43.225Z,45.70
2022-12-19T07:43:45.983Z,41.20
2022-12-19T07:44:49.713Z,43.53
2022-12-19T07:45:57.048Z,42.42
2022-12-19T07:47:00.630Z,46.85
2022-12-19T07:48:03.669Z,42.45
2022-12-19T07:49:07.130Z,45.50
2022-12-19T07:50:09.780Z,39.58
2022-12-19T07:51:13.843Z,42.30
2022-12-19T07:52:17.597Z,39.30
2022-12-19T07:53:19.950Z,42.60
2022-12-19T07:54:23.565Z,37.60
2022-12-19T07:55:26.784Z,39.33
2022-12-19T07:56:30.620Z,46.13
2022-12-19T07:57:34.891Z,42.58
2022-12-19T07:58:38.269Z,47.10
2022-12-19T07:59:41.681Z,48.97
2022-12-19T08:00:43.879Z,45.15
2022-12-19T08:01:49.054Z,50.97
2022-12-19T08:02:51.451Z,52.80
2022-12-19T08:03:54.774Z,51.20
2022-12-19T08:04:58.089Z,48.13
2022-12-19T08:06:01.851Z,57.70
2022-12-19T08:07:04.354Z,51.65
2022-12-19T08:08:08.955Z,48.55
2022-12-19T08:09:12.505Z,40.30
2022-12-19T08:10:15.524Z,41.15
2022-12-19T08:11:22.756Z,37.65
2022-12-19T08:12:27.113Z,36.00
2022-12-19T08:13:37.214Z,38.85
2022-12-19T08:14:42.130Z,42.13
2022-12-19T08:15:44.369Z,45.92
2022-12-19T08:17:19.193Z,42.63
2022-12-19T08:18:12.934Z,50.40
2022-12-19T08:19:16.531Z,48.67
2022-12-19T08:20:20.672Z,52.05
2022-12-19T08:21:25.066Z,46.45
2022-12-19T08:22:31.458Z,39.47
2022-12-19T08:23:33.735Z,41.72
2022-12-19T08:24:37.194Z,40.42
2022-12-19T08:25:40.699Z,40.75
2022-12-19T08:26:47.787Z,38.97
2022-12-19T08:27:51.404Z,37.47
2022-12-19T08:28:56.362Z,40.38
2022-12-19T08:29:58.768Z,36.47
2022-12-19T08:31:08.837Z,41.00
2022-12-19T08:32:20.189Z,39.67
2022-12-19T08:33:25.197Z,35.17
2022-12-19T08:34:32.863Z,37.67
2022-12-19T08:35:37.816Z,43.28
2022-12-19T08:36:39.938Z,43.03
2022-12-19T08:37:43.159Z,48.80
2022-12-19T08:38:46.578Z,40.78
2022-12-19T08:39:50.152Z,42.85
2022-12-19T08:40:55.106Z,38.92
2022-12-19T08:41:59.542Z,39.83
2022-12-19T08:43:03.054Z,35.80
2022-12-19T08:44:06.468Z,34.83
2022-12-19T08:45:10.748Z,38.42
2022-12-19T08:46:14.256Z,30.77
2022-12-19T08:47:19.566Z,35.95
2022-12-19T08:48:22.155Z,31.85
2022-12-19T08:49:25.629Z,30.85
2022-12-19T08:50:30.334Z,31.50
2022-12-19T08:51:33.928Z,34.40
2022-12-19T08:52:38.581Z,31.83
2022-12-19T08:53:42.662Z,30.80
2022-12-19T08:54:46.320Z,25.65
2022-12-19T08:55:49.100Z,29.58
2022-12-19T08:56:52.716Z,29.63
2022-12-19T08:57:56.009Z,29.30
2022-12-19T08:58:59.443Z,31.38
2022-12-19T09:00:02.681Z,29.33
2022-12-19T09:01:10.090Z,24.83
2022-12-19T09:02:12.426Z,21.85
2022-12-19T09:03:17.648Z,23.23
2022-12-19T09:05:58.654Z,25.17
2022-12-19T09:06:06.667Z,25.98
2022-12-19T09:07:15.528Z,25.42
2022-12-19T09:08:18.132Z,27.08
2022-12-19T09:09:21.466Z,25.38
2022-12-19T09:10:23.906Z,23.58
2022-12-19T09:11:27.264Z,23.10
2022-12-19T09:12:30.420Z,22.05
2022-12-19T09:13:33.374Z,21.55
2022-12-19T09:14:36.981Z,28.00
2022-12-19T09:15:41.018Z,34.35
2022-12-19T09:16:45.205Z,24.33
2022-12-19T09:17:47.353Z,26.63
2022-12-19T09:18:53.576Z,27.85
2022-12-19T09:19:55.740Z,25.40
2022-12-19T09:21:00.141Z,24.95
2022-12-19T09:22:04.507Z,23.25
2022-12-19T09:23:07.570Z,23.25
2022-12-19T09:24:11.297Z,21.33
2022-12-19T09:25:14.414Z,24.85
2022-12-19T09:26:17.232Z,21.58
2022-12-19T09:27:20.511Z,27.15
2022-12-19T09:28:28.110Z,26.02
2022-12-19T09:29:35.277Z,28.42
2022-12-19T09:30:39.015Z,24.90
2022-12-19T09:31:42.295Z,26.42
2022-12-19T09:32:46.401Z,25.95
2022-12-19T09:33:54.677Z,26.30
2022-12-19T09:35:07.408Z,26.05
2022-12-19T09:36:14.195Z,26.33
2022-12-19T09:37:18.039Z,23.23
2022-12-19T09:38:22.081Z,23.92
2022-12-19T09:39:24.639Z,26.02
2022-12-19T09:40:30.103Z,28.45
2022-12-19T09:41:53.792Z,23.23
2022-12-19T09:43:05.434Z,26.25
2022-12-19T09:44:21.228Z,28.63
2022-12-19T09:45:38.843Z,27.27
2022-12-19T09:46:51.151Z,26.73
2022-12-19T09:48:01.776Z,25.33
2022-12-19T09:49:45.218Z,29.58
2022-12-19T09:51:09.322Z,23.15
2022-12-19T09:52:18.780Z,25.63
2022-12-19T09:53:27.268Z,25.48
2022-12-19T09:54:38.449Z,30.05
2022-12-19T09:55:44.184Z,30.10
2022-12-19T09:56:50.295Z,31.85
2022-12-19T09:57:59.371Z,26.70
2022-12-19T09:59:08.522Z,25.40
2022-12-19T10:00:16.237Z,25.35
2022-12-19T10:01:24.035Z,27.80
2022-12-19T10:02:34.496Z,30.42
2022-12-19T10:03:43.203Z,29.00
2022-12-19T10:04:54.213Z,27.90
2022-12-19T10:07:10.625Z,24.92
2022-12-19T10:07:59.620Z,23.92
2022-12-19T10:09:30.685Z,23.55
2022-12-19T10:12:35.452Z,26.83
2022-12-19T10:12:43.243Z,24.95
2022-12-19T10:13:28.178Z,24.00
2022-12-19T10:14:44.797Z,24.27
2022-12-19T10:15:59.856Z,22.33
2022-12-19T10:17:25.335Z,24.33
2022-12-19T10:18:42.212Z,21.92
2022-12-19T10:20:04.709Z,22.50
2022-12-19T10:21:10.551Z,21.20
2022-12-19T10:22:25.256Z,21.35
2022-12-19T10:23:48.361Z,24.33
2022-12-19T10:25:09.358Z,22.83
2022-12-19T10:26:20.733Z,24.42
2022-12-19T10:27:32.643Z,25.10
2022-12-19T10:28:55.989Z,29.75
2022-12-19T10:30:05.518Z,20.55
2022-12-19T10:31:21.496Z,21.85
2022-12-19T10:32:31.411Z,25.27
2022-12-19T10:33:41.149Z,22.90
2022-12-19T10:34:46.045Z,24.08
2022-12-19T10:35:55.959Z,21.17
2022-12-19T10:37:25.250Z,23.48
2022-12-19T10:38:39.448Z,20.15
2022-12-19T10:39:58.567Z,24.27
2022-12-19T10:41:16.394Z,21.38
2022-12-19T10:42:31.557Z,19.92
2022-12-19T10:43:46.848Z,19.92
2022-12-19T10:45:04.092Z,17.77
2022-12-19T10:46:15.213Z,19.65
2022-12-19T10:47:19.151Z,21.40
2022-12-19T10:48:30.510Z,21.25
2022-12-19T10:49:34.715Z,18.85
2022-12-19T10:50:38.181Z,20.30
2022-12-19T10:51:43.819Z,19.83
2022-12-19T10:52:53.509Z,18.65
2022-12-19T10:53:58.286Z,19.40
2022-12-19T10:55:01.564Z,16.42
2022-12-19T10:56:14.331Z,19.45
2022-12-19T10:57:23.699Z,20.33
2022-12-19T10:58:28.466Z,19.15
2022-12-19T10:59:31.632Z,19.73
2022-12-19T11:00:35.045Z,22.65
2022-12-19T11:01:40.551Z,25.67
2022-12-19T11:02:45.703Z,23.63
2022-12-19T11:03:53.401Z,22.17
2022-12-19T11:04:56.836Z,21.15
2022-12-19T11:06:01.179Z,22.65
2022-12-19T11:07:20.784Z,18.02
2022-12-19T11:08:25.782Z,18.83
2022-12-19T11:09:32.629Z,17.75
2022-12-19T11:11:57.950Z,21.27
2022-12-19T11:15:44.191Z,17.60
2022-12-19T11:17:06.201Z,24.98
2022-12-19T11:19:28.959Z,24.25
2022-12-19T11:22:46.927Z,22.73
2022-12-19T11:27:22.370Z,18.27
2022-12-19T11:28:05.989Z,17.65
2022-12-19T11:29:18.620Z,20.33
2022-12-19T11:29:31.407Z,26.92
2022-12-19T11:29:54.531Z,23.30
2022-12-19T11:30:09.729Z,19.13
2022-12-19T11:30:42.987Z,34.25
2022-12-19T11:30:43.369Z,25.08
2022-12-19T11:32:49.274Z,15.00
2022-12-19T11:33:56.140Z,16.60
2022-12-19T11:35:02.471Z,20.17
2022-12-19T11:36:07.567Z,22.42
2022-12-19T11:37:21.274Z,16.63
2022-12-19T11:38:36.073Z,16.88
2022-12-19T11:39:45.630Z,15.15
2022-12-19T11:40:52.469Z,16.75
2022-12-19T11:42:04.175Z,18.75
2022-12-19T11:44:41.641Z,18.25
2022-12-19T11:45:52.046Z,13.38
2022-12-19T11:47:00.403Z,17.50
2022-12-19T11:48:12.925Z,15.50
2022-12-19T11:49:26.753Z,15.35
2022-12-19T11:50:34.265Z,12.13
2022-12-19T11:51:46.403Z,16.88
2022-12-19T11:53:09.968Z,15.40
2022-12-19T11:54:25.931Z,15.05
2022-12-19T11:55:37.377Z,12.02
2022-12-19T11:56:40.591Z,13.30
2022-12-19T11:57:42.954Z,12.25
2022-12-19T11:58:49.420Z,13.52
2022-12-19T11:59:57.400Z,12.10
2022-12-19T12:01:14.525Z,13.02
2022-12-19T12:02:41.364Z,12.75
2022-12-19T12:04:06.917Z,11.88
2022-12-19T12:05:26.666Z,12.48
2022-12-19T12:06:34.705Z,11.55
2022-12-19T12:08:47.750Z,12.20
2022-12-19T12:11:48.447Z,10.65
2022-12-19T12:17:28.106Z,13.73
2022-12-19T12:19:12.531Z,15.00
2022-12-19T12:24:07.962Z,12.02
2022-12-19T12:24:22.394Z,14.15
2022-12-19T12:31:04.927Z,15.13
2022-12-19T12:31:13.625Z,12.18
2022-12-19T12:31:14.258Z,14.23
2022-12-19T12:31:18.476Z,11.30
2022-12-19T12:31:20.259Z,13.98
2022-12-19T12:31:39.390Z,12.00
2022-12-19T12:31:49.895Z,15.90
2022-12-19T12:31:55.168Z,15.05
2022-12-19T12:32:03.520Z,14.73
2022-12-19T12:35:47.064Z,19.88
2022-12-19T12:37:03.469Z,22.60
2022-12-19T12:37:13.827Z,21.63
2022-12-19T12:38:24.367Z,20.40
2022-12-19T12:39:39.671Z,17.95
2022-12-19T12:41:06.143Z,17.35
2022-12-19T12:42:19.630Z,19.67
2022-12-19T12:43:36.514Z,23.20
2022-12-19T12:44:45.518Z,20.42
2022-12-19T12:45:49.620Z,22.10
2022-12-19T12:47:01.286Z,17.08
2022-12-19T12:48:15.210Z,19.55
2022-12-19T12:49:36.949Z,18.65
2022-12-19T12:50:43.176Z,20.42
2022-12-19T12:51:47.812Z,16.65
2022-12-19T12:52:53.993Z,17.05
2022-12-19T12:54:03.490Z,16.60
2022-12-19T12:55:19.125Z,20.55
2022-12-19T12:56:21.705Z,20.20
2022-12-19T12:57:38.217Z,21.75
2022-12-19T12:59:21.143Z,20.20
2022-12-19T13:00:27.527Z,23.42
2022-12-19T13:01:35.155Z,22.10
2022-12-19T13:02:38.627Z,19.25
2022-12-19T13:03:42.241Z,24.33
2022-12-19T13:04:58.126Z,23.98
2022-12-19T13:06:05.864Z,18.58
2022-12-19T13:07:20.038Z,20.45
2022-12-19T13:08:37.519Z,18.98
2022-12-19T13:09:41.265Z,20.65
2022-12-19T13:10:55.035Z,20.67
2022-12-19T13:12:21.973Z,22.00
2022-12-19T13:13:51.704Z,19.98
2022-12-19T13:14:54.833Z,24.83
2022-12-19T13:15:56.998Z,18.95
2022-12-19T13:17:00.357Z,19.90
2022-12-19T13:18:13.483Z,19.10
2022-12-19T13:19:25.880Z,21.17
2022-12-19T13:20:44.494Z,19.45
2022-12-19T13:22:23.345Z,18.63
2022-12-19T13:23:50.860Z,19.42
2022-12-19T13:24:55.524Z,22.15
2022-12-19T13:25:57.851Z,20.83
2022-12-19T13:27:01.834Z,24.95
2022-12-19T13:28:15.774Z,25.77
2022-12-19T13:31:23.536Z,24.67
2022-12-19T13:32:28.643Z,28.00
2022-12-19T13:33:47.319Z,29.35
2022-12-19T13:34:58.219Z,30.40
2022-12-19T13:39:51.849Z,24.00
2022-12-19T13:40:01.583Z,22.80
2022-12-19T13:40:12.554Z,22.27
2022-12-19T13:41:46.709Z,23.35
2022-12-19T13:43:15.720Z,23.50
2022-12-19T13:44:20.961Z,28.65
2022-12-19T13:45:28.309Z,28.20
2022-12-19T13:46:41.514Z,30.50
2022-12-19T13:47:46.343Z,30.65
2022-12-19T13:48:51.054Z,27.63
2022-12-19T13:49:54.819Z,32.65
2022-12-19T13:51:00.392Z,30.98
2022-12-19T13:52:05.251Z,30.77
2022-12-19T13:53:15.301Z,29.73
2022-12-19T13:54:24.133Z,31.48
2022-12-19T13:55:30.397Z,36.60
2022-12-19T13:56:34.235Z,31.52
2022-12-19T13:57:40.173Z,30.45
2022-12-19T13:58:49.594Z,30.25
2022-12-19T14:00:00.009Z,26.65
2022-12-19T14:01:21.028Z,28.75
2022-12-19T14:02:31.257Z,29.55
2022-12-19T14:03:39.374Z,30.20
2022-12-19T14:04:42.724Z,28.73
2022-12-19T14:06:17.386Z,29.38
2022-12-19T14:07:36.061Z,35.15
2022-12-19T14:08:41.121Z,32.55
2022-12-19T14:11:33.539Z,32.00
2022-12-19T14:11:45.690Z,30.73
2022-12-19T14:13:43.554Z,28.67
2022-12-19T14:14:38.868Z,28.52
2022-12-19T14:15:46.092Z,31.08
2022-12-19T14:17:07.435Z,28.77
2022-12-19T14:18:43.249Z,29.55
2022-12-19T14:19:45.044Z,32.42
2022-12-19T14:22:10.785Z,32.13
2022-12-19T14:22:20.545Z,36.75
2022-12-19T14:23:43.080Z,32.58
2022-12-19T14:24:55.448Z,31.67
2022-12-19T14:28:17.442Z,27.38
2022-12-19T14:28:23.158Z,33.25
2022-12-19T14:29:45.485Z,26.80
2022-12-19T14:30:51.135Z,29.75
2022-12-19T14:32:23.928Z,30.00
2022-12-19T14:33:46.857Z,29.38
2022-12-19T14:36:07.173Z,30.38
2022-12-19T14:36:18.669Z,33.15
2022-12-19T14:39:25.270Z,33.63
2022-12-19T14:39:25.776Z,35.20
2022-12-19T14:40:27.054Z,33.45
2022-12-19T14:42:10.703Z,33.95
2022-12-19T14:43:58.763Z,31.65
2022-12-19T14:52:08.178Z,42.22
2022-12-19T14:52:11.722Z,35.30
2022-12-19T14:53:08.700Z,34.65
2022-12-19T14:54:06.175Z,31.60
2022-12-19T14:54:12.349Z,35.35
2022-12-19T14:54:40.347Z,38.08
2022-12-19T14:55:17.211Z,32.80
2022-12-19T14:56:08.550Z,39.17
2022-12-19T14:57:00.283Z,36.58
2022-12-19T14:58:51.356Z,39.45
2022-12-19T14:59:36.778Z,42.40
2022-12-19T15:01:09.198Z,38.53
2022-12-19T15:02:27.656Z,36.40